createdAt,value
2017-12-29T00:00:46.325Z,0
2017-12-29T00:01:45.744Z,0
2017-12-29T00:02:46.045Z,0
2017-12-29T00:03:45.775Z,0
2017-12-29T00:04:46.065Z,0
2017-12-29T00:05:45.551Z,0
2017-12-29T00:06:46.091Z,0
2017-12-29T00:07:45.580Z,0
2017-12-29T00:08:46.376Z,0
2017-12-29T00:09:46.372Z,0
2017-12-29T00:10:45.877Z,0
2017-12-29T00:11:45.891Z,0
2017-12-29T00:12:46.170Z,0
2017-12-29T00:13:45.903Z,0
2017-12-29T00:14:46.174Z,0
2017-12-29T00:15:45.731Z,0
2017-12-29T00:16:46.180Z,0
2017-12-29T00:17:45.956Z,0
2017-12-29T00:18:45.955Z,0
2017-12-29T00:19:46.514Z,0
2017-12-29T00:20:46.519Z,0
2017-12-29T00:21:45.962Z,0
2017-12-29T00:22:46.018Z,0
2017-12-29T00:23:46.283Z,0
2017-12-29T00:24:46.300Z,0
2017-12-29T00:25:46.010Z,0
2017-12-29T00:26:46.060Z,0
2017-12-29T00:27:46.079Z,0
2017-12-29T00:28:46.351Z,0
2017-12-29T00:29:46.616Z,0
2017-12-29T00:30:46.688Z,0
2017-12-29T00:31:46.373Z,0
2017-12-29T00:32:46.640Z,0
2017-12-29T00:33:45.866Z,0
2017-12-29T00:34:46.653Z,0
2017-12-29T00:35:46.382Z,0
2017-12-29T00:36:46.654Z,0
2017-12-29T00:37:46.418Z,0
2017-12-29T00:38:46.201Z,0
2017-12-29T00:39:46.204Z,0
2017-12-29T00:40:45.972Z,0
2017-12-29T00:41:46.195Z,0
2017-12-29T00:42:46.210Z,0
2017-12-29T00:43:46.519Z,0
2017-12-29T00:44:46.505Z,0
2017-12-29T00:45:46.318Z,0
2017-12-29T00:46:46.781Z,0
2017-12-29T00:47:46.027Z,0
2017-12-29T00:48:46.277Z,0
2017-12-29T00:49:46.577Z,0
2017-12-29T00:50:46.541Z,0
2017-12-29T00:51:46.324Z,0
2017-12-29T00:52:46.583Z,0
2017-12-29T00:53:46.879Z,0
2017-12-29T00:54:46.106Z,0
2017-12-29T00:55:46.377Z,0
2017-12-29T00:56:46.616Z,0
2017-12-29T00:57:46.647Z,0
2017-12-29T00:58:46.130Z,0
2017-12-29T00:59:46.641Z,0
2017-12-29T01:00:46.206Z,0
2017-12-29T01:01:46.162Z,0
2017-12-29T01:02:46.174Z,0
2017-12-29T01:03:46.434Z,0
2017-12-29T01:04:46.952Z,0
2017-12-29T01:05:46.708Z,0
2017-12-29T01:06:46.468Z,0
2017-12-29T01:07:46.984Z,0
2017-12-29T01:08:46.492Z,0
2017-12-29T01:09:46.262Z,0
2017-12-29T01:10:46.517Z,0
2017-12-29T01:11:46.538Z,0
2017-12-29T01:12:46.285Z,0
2017-12-29T01:13:46.549Z,0
2017-12-29T01:14:46.556Z,0
2017-12-29T01:15:46.870Z,0
2017-12-29T01:16:46.590Z,0
2017-12-29T01:17:47.097Z,0
2017-12-29T01:18:46.863Z,0
2017-12-29T01:19:47.123Z,0
2017-12-29T01:20:46.637Z,0
2017-12-29T01:21:46.885Z,0
2017-12-29T01:22:46.915Z,0
2017-12-29T01:23:46.660Z,0
2017-12-29T01:24:46.675Z,0
2017-12-29T01:25:46.936Z,0
2017-12-29T01:26:46.720Z,0
2017-12-29T01:27:46.453Z,0
2017-12-29T01:28:46.971Z,0
2017-12-29T01:29:46.985Z,8
2017-12-29T01:30:47.290Z,0
2017-12-29T01:31:46.751Z,0
2017-12-29T01:32:46.762Z,0
2017-12-29T01:33:47.034Z,0
2017-12-29T01:34:47.286Z,0
2017-12-29T01:35:47.045Z,8
2017-12-29T01:36:47.063Z,0
2017-12-29T01:37:47.319Z,0
2017-12-29T01:38:46.830Z,0
2017-12-29T01:39:47.348Z,0
2017-12-29T01:40:47.106Z,0
2017-12-29T01:41:47.116Z,0
2017-12-29T01:42:47.127Z,0
2017-12-29T01:43:47.398Z,0
2017-12-29T01:44:47.400Z,0
2017-12-29T01:45:46.959Z,0
2017-12-29T01:46:46.919Z,0
2017-12-29T01:47:47.186Z,0
2017-12-29T01:48:47.200Z,0
2017-12-29T01:49:46.951Z,0
2017-12-29T01:50:47.275Z,0
2017-12-29T01:51:46.978Z,0
2017-12-29T01:52:46.985Z,0
2017-12-29T01:53:47.249Z,0
2017-12-29T01:54:47.260Z,0
2017-12-29T01:55:47.023Z,0
2017-12-29T01:56:47.293Z,0
2017-12-29T01:57:46.798Z,0
2017-12-29T01:58:47.304Z,0
2017-12-29T01:59:47.067Z,0
2017-12-29T02:00:47.079Z,0
2017-12-29T02:01:47.346Z,0
2017-12-29T02:02:47.614Z,0
2017-12-29T02:03:47.372Z,0
2017-12-29T02:04:47.646Z,0
2017-12-29T02:05:47.204Z,0
2017-12-29T02:06:47.657Z,0
2017-12-29T02:07:47.669Z,0
2017-12-29T02:08:47.424Z,0
2017-12-29T02:09:47.684Z,0
2017-12-29T02:10:47.447Z,0
2017-12-29T02:11:47.706Z,0
2017-12-29T02:12:47.215Z,0
2017-12-29T02:13:47.731Z,0
2017-12-29T02:14:46.986Z,0
2017-12-29T02:15:46.995Z,0
2017-12-29T02:16:47.260Z,0
2017-12-29T02:17:47.273Z,0
2017-12-29T02:18:47.785Z,0
2017-12-29T02:19:47.798Z,0
2017-12-29T02:20:47.856Z,0
2017-12-29T02:21:47.572Z,0
2017-12-29T02:22:47.836Z,0
2017-12-29T02:23:47.405Z,0
2017-12-29T02:24:47.101Z,0
2017-12-29T02:25:47.615Z,0
2017-12-29T02:26:47.377Z,0
2017-12-29T02:27:47.390Z,0
2017-12-29T02:28:47.914Z,0
2017-12-29T02:29:47.413Z,0
2017-12-29T02:30:47.424Z,0
2017-12-29T02:31:47.437Z,0
2017-12-29T02:32:47.702Z,0
2017-12-29T02:33:47.707Z,0
2017-12-29T02:34:47.727Z,0
2017-12-29T02:35:47.234Z,0
2017-12-29T02:36:47.757Z,0
2017-12-29T02:37:47.757Z,0
2017-12-29T02:38:47.313Z,0
2017-12-29T02:39:48.027Z,0
2017-12-29T02:40:47.803Z,0
2017-12-29T02:41:47.553Z,0
2017-12-29T02:42:47.560Z,0
2017-12-29T02:43:48.081Z,0
2017-12-29T02:44:48.087Z,0
2017-12-29T02:45:47.649Z,0
2017-12-29T02:46:48.111Z,0
2017-12-29T02:47:47.624Z,0
2017-12-29T02:48:48.134Z,0
2017-12-29T02:49:47.389Z,0
2017-12-29T02:50:48.154Z,0
2017-12-29T02:51:47.673Z,0
2017-12-29T02:52:47.946Z,0
2017-12-29T02:53:47.733Z,0
2017-12-29T02:54:48.202Z,0
2017-12-29T02:55:47.728Z,0
2017-12-29T02:56:47.730Z,0
2017-12-29T02:57:47.988Z,0
2017-12-29T02:58:47.993Z,0
2017-12-29T02:59:48.261Z,0
2017-12-29T03:00:48.271Z,0
2017-12-29T03:01:48.028Z,0
2017-12-29T03:02:48.294Z,0
2017-12-29T03:03:48.054Z,0
2017-12-29T03:04:47.812Z,0
2017-12-29T03:05:48.079Z,0
2017-12-29T03:06:48.089Z,0
2017-12-29T03:07:47.851Z,0
2017-12-29T03:08:48.160Z,0
2017-12-29T03:09:48.377Z,0
2017-12-29T03:10:48.140Z,0
2017-12-29T03:11:47.644Z,0
2017-12-29T03:12:47.902Z,0
2017-12-29T03:13:48.176Z,0
2017-12-29T03:14:48.191Z,0
2017-12-29T03:15:48.448Z,0
2017-12-29T03:16:48.000Z,0
2017-12-29T03:17:47.727Z,0
2017-12-29T03:18:47.989Z,0
2017-12-29T03:19:47.744Z,0
2017-12-29T03:20:48.253Z,0
2017-12-29T03:21:48.271Z,0
2017-12-29T03:22:47.779Z,0
2017-12-29T03:23:48.441Z,0
2017-12-29T03:24:48.312Z,0
2017-12-29T03:25:48.067Z,0
2017-12-29T03:26:48.100Z,0
2017-12-29T03:27:48.339Z,0
2017-12-29T03:28:47.848Z,0
2017-12-29T03:29:48.411Z,0
2017-12-29T03:30:48.124Z,0
2017-12-29T03:31:48.636Z,0
2017-12-29T03:32:48.649Z,0
2017-12-29T03:33:48.663Z,0
2017-12-29T03:34:48.374Z,0
2017-12-29T03:35:48.430Z,0
2017-12-29T03:36:47.942Z,0
2017-12-29T03:37:48.706Z,0
2017-12-29T03:38:48.470Z,0
2017-12-29T03:39:48.780Z,0
2017-12-29T03:40:48.744Z,0
2017-12-29T03:41:48.761Z,0
2017-12-29T03:42:48.516Z,0
2017-12-29T03:43:48.277Z,0
2017-12-29T03:44:48.554Z,0
2017-12-29T03:45:48.294Z,0
2017-12-29T03:46:48.814Z,0
2017-12-29T03:47:48.826Z,0
2017-12-29T03:48:48.830Z,0
2017-12-29T03:49:48.095Z,0
2017-12-29T03:50:48.860Z,0
2017-12-29T03:51:48.367Z,0
2017-12-29T03:52:48.886Z,0
2017-12-29T03:53:48.643Z,0
2017-12-29T03:54:49.108Z,0
2017-12-29T03:55:48.162Z,0
2017-12-29T03:56:48.429Z,0
2017-12-29T03:57:48.433Z,0
2017-12-29T03:58:48.199Z,0
2017-12-29T03:59:48.708Z,0
2017-12-29T04:00:48.720Z,0
2017-12-29T04:01:48.230Z,0
2017-12-29T04:02:48.744Z,0
2017-12-29T04:03:48.255Z,0
2017-12-29T04:04:48.514Z,0
2017-12-29T04:05:48.277Z,0
2017-12-29T04:06:49.041Z,0
2017-12-29T04:07:48.805Z,0
2017-12-29T04:08:48.571Z,0
2017-12-29T04:09:48.875Z,0
2017-12-29T04:10:49.093Z,0
2017-12-29T04:11:49.109Z,0
2017-12-29T04:12:48.613Z,0
2017-12-29T04:13:48.872Z,0
2017-12-29T04:14:48.889Z,0
2017-12-29T04:15:48.894Z,0
2017-12-29T04:16:48.906Z,0
2017-12-29T04:17:49.168Z,0
2017-12-29T04:18:48.428Z,0
2017-12-29T04:19:48.436Z,0
2017-12-29T04:20:48.447Z,0
2017-12-29T04:21:48.714Z,0
2017-12-29T04:22:48.978Z,0
2017-12-29T04:23:49.240Z,0
2017-12-29T04:24:49.297Z,0
2017-12-29T04:25:48.508Z,0
2017-12-29T04:26:49.275Z,0
2017-12-29T04:27:49.038Z,0
2017-12-29T04:28:48.798Z,0
2017-12-29T04:29:48.805Z,0
2017-12-29T04:30:48.819Z,0
2017-12-29T04:31:49.083Z,0
2017-12-29T04:32:49.342Z,0
2017-12-29T04:33:49.103Z,0
2017-12-29T04:34:48.861Z,0
2017-12-29T04:35:48.872Z,0
2017-12-29T04:36:48.886Z,0
2017-12-29T04:37:48.898Z,0
2017-12-29T04:38:49.415Z,0
2017-12-29T04:39:49.474Z,0
2017-12-29T04:40:49.435Z,0
2017-12-29T04:41:48.945Z,0
2017-12-29T04:42:49.209Z,0
2017-12-29T04:43:49.471Z,0
2017-12-29T04:44:49.533Z,0
2017-12-29T04:45:49.244Z,0
2017-12-29T04:46:49.004Z,0
2017-12-29T04:47:49.020Z,0
2017-12-29T04:48:49.024Z,0
2017-12-29T04:49:49.534Z,0
2017-12-29T04:50:49.045Z,0
2017-12-29T04:51:49.260Z,0
2017-12-29T04:52:49.323Z,0
2017-12-29T04:53:49.606Z,0
2017-12-29T04:54:49.644Z,0
2017-12-29T04:55:49.125Z,0
2017-12-29T04:56:49.619Z,0
2017-12-29T04:57:49.373Z,0
2017-12-29T04:58:49.639Z,0
2017-12-29T04:59:49.656Z,0
2017-12-29T05:00:49.412Z,0
2017-12-29T05:01:49.675Z,0
2017-12-29T05:02:48.932Z,0
2017-12-29T05:03:49.202Z,0
2017-12-29T05:04:49.714Z,0
2017-12-29T05:05:49.224Z,0
2017-12-29T05:06:49.485Z,0
2017-12-29T05:07:49.499Z,0
2017-12-29T05:08:49.514Z,0
2017-12-29T05:09:49.325Z,0
2017-12-29T05:10:49.534Z,0
2017-12-29T05:11:49.546Z,0
2017-12-29T05:12:49.302Z,0
2017-12-29T05:13:49.567Z,0
2017-12-29T05:14:49.579Z,0
2017-12-29T05:15:49.338Z,0
2017-12-29T05:16:49.098Z,0
2017-12-29T05:17:49.615Z,0
2017-12-29T05:18:49.623Z,0
2017-12-29T05:19:49.647Z,0
2017-12-29T05:20:49.395Z,0
2017-12-29T05:21:49.909Z,0
2017-12-29T05:22:49.681Z,0
2017-12-29T05:23:49.938Z,0
2017-12-29T05:24:49.743Z,0
2017-12-29T05:25:49.205Z,0
2017-12-29T05:26:49.741Z,0
2017-12-29T05:27:49.981Z,0
2017-12-29T05:28:49.990Z,0
2017-12-29T05:29:49.504Z,0
2017-12-29T05:30:50.018Z,0
2017-12-29T05:31:49.528Z,0
2017-12-29T05:32:50.039Z,0
2017-12-29T05:33:49.811Z,0
2017-12-29T05:34:49.812Z,0
2017-12-29T05:35:49.319Z,0
2017-12-29T05:36:49.691Z,0
2017-12-29T05:37:49.844Z,0
2017-12-29T05:38:49.601Z,0
2017-12-29T05:39:49.623Z,0
2017-12-29T05:40:49.374Z,0
2017-12-29T05:41:50.187Z,0
2017-12-29T05:42:50.157Z,0
2017-12-29T05:43:49.664Z,0
2017-12-29T05:44:49.927Z,0
2017-12-29T05:45:50.187Z,0
2017-12-29T05:46:49.952Z,0
2017-12-29T05:47:49.954Z,0
2017-12-29T05:48:49.735Z,0
2017-12-29T05:49:49.979Z,0
2017-12-29T05:50:49.738Z,0
2017-12-29T05:51:50.004Z,0
2017-12-29T05:52:50.264Z,0
2017-12-29T05:53:50.276Z,0
2017-12-29T05:54:50.035Z,0
2017-12-29T05:55:50.298Z,0
2017-12-29T05:56:50.365Z,0
2017-12-29T05:57:49.818Z,0
2017-12-29T05:58:50.334Z,0
2017-12-29T05:59:50.350Z,0
2017-12-29T06:00:50.363Z,0
2017-12-29T06:01:50.170Z,0
2017-12-29T06:02:49.876Z,0
2017-12-29T06:03:50.390Z,0
2017-12-29T06:04:49.896Z,0
2017-12-29T06:05:49.906Z,0
2017-12-29T06:06:50.195Z,0
2017-12-29T06:07:49.928Z,0
2017-12-29T06:08:50.189Z,0
2017-12-29T06:09:50.202Z,0
2017-12-29T06:10:50.472Z,0
2017-12-29T06:11:50.244Z,0
2017-12-29T06:12:50.484Z,0
2017-12-29T06:13:50.003Z,0
2017-12-29T06:14:50.259Z,0
2017-12-29T06:15:50.026Z,0
2017-12-29T06:16:50.536Z,0
2017-12-29T06:17:50.547Z,0
2017-12-29T06:18:50.054Z,0
2017-12-29T06:19:49.816Z,0
2017-12-29T06:20:50.578Z,0
2017-12-29T06:21:50.085Z,0
2017-12-29T06:22:49.843Z,0
2017-12-29T06:23:50.617Z,0
2017-12-29T06:24:50.128Z,0
2017-12-29T06:25:49.874Z,0
2017-12-29T06:26:50.391Z,0
2017-12-29T06:27:50.354Z,0
2017-12-29T06:28:50.162Z,0
2017-12-29T06:29:50.429Z,0
2017-12-29T06:30:50.437Z,4
2017-12-29T06:31:50.449Z,4
2017-12-29T06:32:50.716Z,0
2017-12-29T06:33:49.968Z,4
2017-12-29T06:34:50.485Z,4
2017-12-29T06:35:50.494Z,4
2017-12-29T06:36:50.253Z,8
2017-12-29T06:37:50.827Z,8
2017-12-29T06:38:50.282Z,8
2017-12-29T06:39:50.538Z,8
2017-12-29T06:40:50.299Z,12
2017-12-29T06:41:50.056Z,12
2017-12-29T06:42:50.625Z,16
2017-12-29T06:43:50.917Z,16
2017-12-29T06:44:50.844Z,20
2017-12-29T06:45:50.857Z,20
2017-12-29T06:46:50.117Z,24
2017-12-29T06:47:50.372Z,32
2017-12-29T06:48:50.647Z,32
2017-12-29T06:49:50.659Z,40
2017-12-29T06:50:50.164Z,44
2017-12-29T06:51:50.944Z,48
2017-12-29T06:52:50.686Z,52
2017-12-29T06:53:50.695Z,60
2017-12-29T06:54:50.454Z,64
2017-12-29T06:55:50.967Z,72
2017-12-29T06:56:50.730Z,80
2017-12-29T06:57:50.792Z,88
2017-12-29T06:58:50.501Z,96
2017-12-29T06:59:50.758Z,104
2017-12-29T07:00:50.522Z,112
2017-12-29T07:01:50.780Z,120
2017-12-29T07:02:50.549Z,132
2017-12-29T07:03:51.069Z,140
2017-12-29T07:04:51.079Z,156
2017-12-29T07:05:50.323Z,164
2017-12-29T07:06:51.089Z,176
2017-12-29T07:07:51.102Z,192
2017-12-29T07:08:50.616Z,204
2017-12-29T07:09:50.624Z,216
2017-12-29T07:10:50.632Z,236
2017-12-29T07:11:50.639Z,256
2017-12-29T07:12:51.201Z,280
2017-12-29T07:13:50.908Z,304
2017-12-29T07:14:50.689Z,324
2017-12-29T07:15:50.432Z,344
2017-12-29T07:16:50.956Z,364
2017-12-29T07:17:51.260Z,388
2017-12-29T07:18:50.473Z,404
2017-12-29T07:19:51.351Z,416
2017-12-29T07:20:50.754Z,432
2017-12-29T07:21:50.757Z,448
2017-12-29T07:22:50.769Z,472
2017-12-29T07:23:50.787Z,508
2017-12-29T07:24:51.293Z,544
2017-12-29T07:25:51.050Z,588
2017-12-29T07:26:51.318Z,624
2017-12-29T07:27:51.130Z,648
2017-12-29T07:28:51.086Z,680
2017-12-29T07:29:50.846Z,716
2017-12-29T07:30:51.110Z,752
2017-12-29T07:31:51.143Z,784
2017-12-29T07:32:51.129Z,820
2017-12-29T07:33:51.147Z,852
2017-12-29T07:34:51.409Z,848
2017-12-29T07:35:51.164Z,832
2017-12-29T07:36:51.251Z,860
2017-12-29T07:37:51.497Z,904
2017-12-29T07:38:50.952Z,944
2017-12-29T07:39:50.956Z,988
2017-12-29T07:40:51.235Z,1036
2017-12-29T07:41:51.481Z,1068
2017-12-29T07:42:51.039Z,1100
2017-12-29T07:43:51.005Z,1144
2017-12-29T07:44:51.013Z,1188
2017-12-29T07:45:51.032Z,1236
2017-12-29T07:46:51.040Z,1288
2017-12-29T07:47:51.049Z,1340
2017-12-29T07:48:51.317Z,1392
2017-12-29T07:49:51.341Z,1532
2017-12-29T07:50:50.829Z,1548
2017-12-29T07:51:51.349Z,1496
2017-12-29T07:52:51.356Z,1604
2017-12-29T07:53:51.118Z,1568
2017-12-29T07:54:50.880Z,1600
2017-12-29T07:55:50.887Z,1648
2017-12-29T07:56:51.401Z,1708
2017-12-29T07:57:50.959Z,1800
2017-12-29T07:58:51.449Z,1940
2017-12-29T07:59:50.932Z,2000
2017-12-29T08:00:51.705Z,2060
2017-12-29T08:01:51.459Z,2128
2017-12-29T08:02:51.466Z,2188
2017-12-29T08:03:51.478Z,2256
2017-12-29T08:04:51.247Z,2340
2017-12-29T08:05:51.261Z,2436
2017-12-29T08:06:51.520Z,2500
2017-12-29T08:07:51.530Z,2580
2017-12-29T08:08:51.291Z,2708
2017-12-29T08:09:51.574Z,3564
2017-12-29T08:10:51.568Z,3756
2017-12-29T08:11:51.327Z,3160
2017-12-29T08:12:51.388Z,3396
2017-12-29T08:13:51.599Z,3652
2017-12-29T08:14:51.913Z,3692
2017-12-29T08:15:51.876Z,3340
2017-12-29T08:16:51.386Z,3940
2017-12-29T08:17:51.703Z,4512
2017-12-29T08:18:51.920Z,4144
2017-12-29T08:19:51.924Z,4924
2017-12-29T08:20:51.431Z,5044
2017-12-29T08:21:51.957Z,5344
2017-12-29T08:22:51.466Z,5008
2017-12-29T08:23:51.470Z,5128
2017-12-29T08:24:51.732Z,5432
2017-12-29T08:25:51.741Z,5892
2017-12-29T08:26:51.510Z,6044
2017-12-29T08:27:51.824Z,6100
2017-12-29T08:28:51.280Z,6092
2017-12-29T08:29:51.553Z,6100
2017-12-29T08:30:51.805Z,6100
2017-12-29T08:31:52.074Z,6120
2017-12-29T08:32:52.089Z,6044
2017-12-29T08:33:51.594Z,6148
2017-12-29T08:34:52.105Z,5932
2017-12-29T08:35:51.367Z,5832
2017-12-29T08:36:51.636Z,4808
2017-12-29T08:37:52.145Z,5568
2017-12-29T08:38:51.404Z,5912
2017-12-29T08:39:51.668Z,5992
2017-12-29T08:40:51.944Z,6068
2017-12-29T08:41:51.690Z,6184
2017-12-29T08:42:52.009Z,6300
2017-12-29T08:43:51.975Z,6188
2017-12-29T08:44:51.730Z,6008
2017-12-29T08:45:51.994Z,5824
2017-12-29T08:46:51.764Z,5664
2017-12-29T08:47:52.277Z,5584
2017-12-29T08:48:51.527Z,5584
2017-12-29T08:49:51.789Z,5636
2017-12-29T08:50:51.823Z,5696
2017-12-29T08:51:52.070Z,5716
2017-12-29T08:52:51.829Z,5704
2017-12-29T08:53:51.851Z,5632
2017-12-29T08:54:51.606Z,5548
2017-12-29T08:55:51.875Z,5536
2017-12-29T08:56:52.387Z,5564
2017-12-29T08:57:52.142Z,5596
2017-12-29T08:58:51.909Z,5624
2017-12-29T08:59:52.172Z,5620
2017-12-29T09:00:51.984Z,5616
2017-12-29T09:01:52.194Z,5632
2017-12-29T09:02:52.205Z,5668
2017-12-29T09:03:52.216Z,5700
2017-12-29T09:04:51.978Z,5740
2017-12-29T09:05:52.062Z,5780
2017-12-29T09:06:52.008Z,5764
2017-12-29T09:07:52.268Z,5700
2017-12-29T09:08:52.034Z,5684
2017-12-29T09:09:52.044Z,5712
2017-12-29T09:10:52.057Z,5716
2017-12-29T09:11:52.580Z,5668
2017-12-29T09:12:52.338Z,5608
2017-12-29T09:13:52.351Z,5580
2017-12-29T09:14:52.617Z,5592
2017-12-29T09:15:52.183Z,5608
2017-12-29T09:16:52.144Z,5624
2017-12-29T09:17:52.658Z,5640
2017-12-29T09:18:52.416Z,5656
2017-12-29T09:19:52.435Z,5676
2017-12-29T09:20:52.193Z,5688
2017-12-29T09:21:52.210Z,5704
2017-12-29T09:22:52.473Z,5696
2017-12-29T09:23:52.233Z,5708
2017-12-29T09:24:52.491Z,5716
2017-12-29T09:25:52.015Z,5736
2017-12-29T09:26:52.282Z,5748
2017-12-29T09:27:52.031Z,5760
2017-12-29T09:28:52.298Z,5772
2017-12-29T09:29:52.055Z,5784
2017-12-29T09:30:52.620Z,5808
2017-12-29T09:31:52.839Z,5820
2017-12-29T09:32:52.097Z,5860
2017-12-29T09:33:52.866Z,5884
2017-12-29T09:34:52.373Z,5892
2017-12-29T09:35:52.634Z,5860
2017-12-29T09:36:52.893Z,5816
2017-12-29T09:37:52.659Z,5828
2017-12-29T09:38:52.924Z,5836
2017-12-29T09:39:52.435Z,5852
2017-12-29T09:40:52.700Z,5876
2017-12-29T09:41:52.716Z,5900
2017-12-29T09:42:53.001Z,5924
2017-12-29T09:43:52.750Z,5972
2017-12-29T09:44:53.008Z,5992
2017-12-29T09:45:53.121Z,6032
2017-12-29T09:46:52.525Z,6044
2017-12-29T09:47:52.549Z,6064
2017-12-29T09:48:52.555Z,6064
2017-12-29T09:49:53.076Z,6080
2017-12-29T09:50:52.581Z,6108
2017-12-29T09:51:52.840Z,6108
2017-12-29T09:52:52.647Z,6128
2017-12-29T09:53:52.910Z,6156
2017-12-29T09:54:53.139Z,6164
2017-12-29T09:55:53.149Z,7684
2017-12-29T09:56:52.655Z,20128
2017-12-29T09:57:52.930Z,31040
2017-12-29T09:58:52.680Z,31936
2017-12-29T09:59:53.199Z,32192
2017-12-29T10:00:52.757Z,32160
2017-12-29T10:01:52.981Z,32064
2017-12-29T10:02:52.742Z,31488
2017-12-29T10:03:53.000Z,32224
2017-12-29T10:04:53.016Z,32736
2017-12-29T10:05:53.384Z,33248
2017-12-29T10:06:52.790Z,35104
2017-12-29T10:07:53.072Z,36896
2017-12-29T10:08:53.334Z,35584
2017-12-29T10:09:52.861Z,34624
2017-12-29T10:10:53.110Z,34816
2017-12-29T10:11:52.872Z,35424
2017-12-29T10:12:53.146Z,36416
2017-12-29T10:13:53.153Z,36064
2017-12-29T10:14:53.183Z,37952
2017-12-29T10:15:53.342Z,38048
2017-12-29T10:16:52.953Z,37824
2017-12-29T10:17:52.980Z,36512
2017-12-29T10:18:53.493Z,34368
2017-12-29T10:19:53.281Z,32928
2017-12-29T10:20:52.773Z,34112
2017-12-29T10:21:53.548Z,39744
2017-12-29T10:22:53.564Z,43040
2017-12-29T10:23:53.096Z,42496
2017-12-29T10:24:53.102Z,42656
2017-12-29T10:25:53.116Z,41984
2017-12-29T10:26:53.643Z,42144
2017-12-29T10:27:52.908Z,42528
2017-12-29T10:28:53.178Z,41952
2017-12-29T10:29:53.204Z,41696
2017-12-29T10:30:53.521Z,42816
2017-12-29T10:31:53.765Z,42592
2017-12-29T10:32:53.015Z,44960
2017-12-29T10:33:53.780Z,46336
2017-12-29T10:34:53.314Z,45728
2017-12-29T10:35:53.322Z,47520
2017-12-29T10:36:53.350Z,47968
2017-12-29T10:37:53.630Z,46816
2017-12-29T10:38:53.392Z,43296
2017-12-29T10:39:53.926Z,40224
2017-12-29T10:40:53.708Z,40800
2017-12-29T10:41:53.708Z,44896
2017-12-29T10:42:53.736Z,50400
2017-12-29T10:43:53.503Z,48928
2017-12-29T10:44:53.522Z,47328
2017-12-29T10:45:53.847Z,49792
2017-12-29T10:46:53.824Z,48064
2017-12-29T10:47:54.098Z,47040
2017-12-29T10:48:53.871Z,50112
2017-12-29T10:49:53.886Z,49056
2017-12-29T10:50:53.407Z,46688
2017-12-29T10:51:53.943Z,50720
2017-12-29T10:52:53.968Z,56288
2017-12-29T10:53:53.735Z,56160
2017-12-29T10:54:54.069Z,51040
2017-12-29T10:55:53.783Z,49184
2017-12-29T10:56:54.306Z,50752
2017-12-29T10:57:54.084Z,52928
2017-12-29T10:58:53.848Z,55648
2017-12-29T10:59:53.870Z,51776
2017-12-29T11:00:54.527Z,46208
2017-12-29T11:01:54.420Z,44224
2017-12-29T11:02:54.449Z,41824
2017-12-29T11:03:54.465Z,40736
2017-12-29T11:04:54.501Z,38528
2017-12-29T11:05:53.765Z,38016
2017-12-29T11:06:54.288Z,38240
2017-12-29T11:07:54.365Z,36960
2017-12-29T11:08:54.339Z,35328
2017-12-29T11:09:54.115Z,33568
2017-12-29T11:10:54.389Z,31776
2017-12-29T11:11:54.412Z,30816
2017-12-29T11:12:54.189Z,30528
2017-12-29T11:13:54.211Z,31840
2017-12-29T11:14:54.235Z,35392
2017-12-29T11:15:54.263Z,41088
2017-12-29T11:16:54.535Z,42720
2017-12-29T11:17:54.846Z,45312
2017-12-29T11:18:54.834Z,39488
2017-12-29T11:19:54.613Z,35328
2017-12-29T11:20:54.641Z,35232
2017-12-29T11:21:54.911Z,32000
2017-12-29T11:22:54.235Z,32128
2017-12-29T11:23:54.721Z,34560
2017-12-29T11:24:54.488Z,35840
2017-12-29T11:25:54.504Z,36512
2017-12-29T11:26:54.550Z,40544
2017-12-29T11:27:55.073Z,41664
2017-12-29T11:28:55.092Z,39776
2017-12-29T11:29:54.619Z,37952
2017-12-29T11:30:54.900Z,36992
2017-12-29T11:31:54.922Z,41216
2017-12-29T11:32:54.939Z,45280
2017-12-29T11:33:54.471Z,44896
2017-12-29T11:34:55.248Z,41536
2017-12-29T11:35:55.022Z,42080
2017-12-29T11:36:55.051Z,45152
2017-12-29T11:37:55.127Z,51392
2017-12-29T11:38:54.599Z,52256
2017-12-29T11:39:54.876Z,50464
2017-12-29T11:40:55.154Z,52608
2017-12-29T11:41:55.432Z,56896
2017-12-29T11:42:55.461Z,61536
2017-12-29T11:43:55.483Z,64608
2017-12-29T11:44:55.508Z,60768
2017-12-29T11:45:55.043Z,56928
2017-12-29T11:46:55.562Z,53376
2017-12-29T11:47:55.085Z,54144
2017-12-29T11:48:55.619Z,56192
2017-12-29T11:49:55.393Z,53472
2017-12-29T11:50:55.414Z,47968
2017-12-29T11:51:55.443Z,46656
2017-12-29T11:52:55.017Z,48704
2017-12-29T11:53:55.754Z,52064
2017-12-29T11:54:55.524Z,54336
2017-12-29T11:55:55.834Z,54464
2017-12-29T11:56:55.580Z,52768
2017-12-29T11:57:55.608Z,48288
2017-12-29T11:58:55.386Z,47616
2017-12-29T11:59:55.410Z,50208
2017-12-29T12:00:55.437Z,53792
2017-12-29T12:01:55.479Z,56832
2017-12-29T12:02:55.491Z,55648
2017-12-29T12:03:56.086Z,56832
2017-12-29T12:04:55.815Z,57440
2017-12-29T12:05:55.829Z,59712
2017-12-29T12:06:55.605Z,60224
2017-12-29T12:07:55.682Z,64096
2017-12-29T12:08:55.914Z,65760
2017-12-29T12:09:55.698Z,63904
2017-12-29T12:10:55.725Z,63680
2017-12-29T12:11:56.011Z,65120
2017-12-29T12:12:56.282Z,68544
2017-12-29T12:13:56.050Z,70208
2017-12-29T12:14:56.332Z,72320
2017-12-29T12:15:56.364Z,73280
2017-12-29T12:16:56.391Z,73568
2017-12-29T12:17:56.172Z,74208
2017-12-29T12:18:56.191Z,74240
2017-12-29T12:19:56.226Z,74816
2017-12-29T12:20:56.062Z,75936
2017-12-29T12:21:56.283Z,77152
2017-12-29T12:22:56.256Z,78432
2017-12-29T12:23:55.836Z,78176
2017-12-29T12:24:56.364Z,77888
2017-12-29T12:25:56.654Z,78720
2017-12-29T12:26:56.426Z,79776
2017-12-29T12:27:56.195Z,78944
2017-12-29T12:28:56.481Z,78784
2017-12-29T12:29:56.759Z,80096
2017-12-29T12:30:56.026Z,81408
2017-12-29T12:31:56.559Z,79552
2017-12-29T12:32:56.849Z,77920
2017-12-29T12:33:56.388Z,74208
2017-12-29T12:34:56.392Z,70624
2017-12-29T12:35:56.677Z,73216
2017-12-29T12:36:56.707Z,79680
2017-12-29T12:37:56.633Z,80416
2017-12-29T12:38:56.769Z,80608
2017-12-29T12:39:56.785Z,80800
2017-12-29T12:40:56.818Z,80288
2017-12-29T12:41:57.045Z,79360
2017-12-29T12:42:56.874Z,81152
2017-12-29T12:43:57.148Z,81120
2017-12-29T12:44:56.677Z,79520
2017-12-29T12:45:56.966Z,77440
2017-12-29T12:46:56.739Z,77120
2017-12-29T12:47:57.267Z,77792
2017-12-29T12:48:56.537Z,76480
2017-12-29T12:49:56.819Z,75488
2017-12-29T12:50:57.353Z,76576
2017-12-29T12:51:57.128Z,76384
2017-12-29T12:52:56.706Z,76320
2017-12-29T12:53:56.933Z,77664
2017-12-29T12:54:57.464Z,78880
2017-12-29T12:55:56.991Z,78048
2017-12-29T12:56:57.273Z,75456
2017-12-29T12:57:57.299Z,70752
2017-12-29T12:58:57.325Z,66336
2017-12-29T12:59:57.351Z,65952
2017-12-29T13:00:57.386Z,67104
2017-12-29T13:01:57.406Z,70784
2017-12-29T13:02:57.435Z,75008
2017-12-29T13:03:57.461Z,77600
2017-12-29T13:04:57.756Z,77888
2017-12-29T13:05:57.770Z,75392
2017-12-29T13:06:57.542Z,73952
2017-12-29T13:07:57.473Z,73536
2017-12-29T13:08:57.606Z,74112
2017-12-29T13:09:57.410Z,75872
2017-12-29T13:10:57.994Z,75616
2017-12-29T13:11:57.431Z,67552
2017-12-29T13:12:57.716Z,66432
2017-12-29T13:13:57.736Z,60832
2017-12-29T13:14:57.767Z,51552
2017-12-29T13:15:57.789Z,40512
2017-12-29T13:16:57.821Z,25056
2017-12-29T13:17:58.126Z,10432
2017-12-29T13:18:58.136Z,4496
2017-12-29T13:19:57.912Z,4448
2017-12-29T13:20:57.932Z,4412
2017-12-29T13:21:57.705Z,4372
2017-12-29T13:22:58.283Z,4340
2017-12-29T13:23:58.256Z,4296
2017-12-29T13:24:57.786Z,4260
2017-12-29T13:25:58.070Z,4220
2017-12-29T13:26:58.132Z,4180
2017-12-29T13:27:58.105Z,4136
2017-12-29T13:28:57.623Z,4104
2017-12-29T13:29:57.906Z,4076
2017-12-29T13:30:58.436Z,4048
2017-12-29T13:31:58.196Z,4020
2017-12-29T13:32:57.965Z,3996
2017-12-29T13:33:58.234Z,3976
2017-12-29T13:34:58.257Z,3948
2017-12-29T13:35:58.284Z,3928
2017-12-29T13:36:58.304Z,3896
2017-12-29T13:37:58.318Z,3880
2017-12-29T13:38:58.357Z,3872
2017-12-29T13:39:58.659Z,3860
2017-12-29T13:41:58.669Z,3828
2017-12-29T13:42:58.165Z,3812
2017-12-29T13:43:58.449Z,3788
2017-12-29T13:44:58.724Z,3760
2017-12-29T13:45:58.491Z,3724
2017-12-29T13:46:58.249Z,3688
2017-12-29T13:47:58.257Z,3656
2017-12-29T13:48:58.523Z,3636
2017-12-29T13:49:58.307Z,3592
2017-12-29T13:50:58.595Z,3556
2017-12-29T13:51:58.096Z,3520
2017-12-29T13:52:58.087Z,3484
2017-12-29T13:53:58.869Z,3452
2017-12-29T13:54:58.704Z,3424
2017-12-29T13:55:58.669Z,3392